Portada
METAR-TAF:

METAR-TAF

Aeropuertos :

West Plains Municipal Airport

West Plains, Misuri, Estados Unidos

latitud: 36-52-45N, longitud: 091-54-18W, altitud: 374 m

Observación

El informe se hizo hace 27 minutos, a las 07:27 UTC
Viento calma
Temperatura 20°C
Humedad 94%
Presión 1016 hPa
Visibilidad: 0.4 km
niebla

METAR: KUNO 060727Z AUTO 00000KT 1/4SM FG VV001 20/19 A3001 RMK AO2 T02000194

Hora: 02:54 (07:54 UTC)


TAF: falta

Observaciones y pronósticos meteorológicos de más de 4000 aeropuertos (mensajes METAR y TAF).

Los puntos amarillos y rojos representan las estaciones disponibles.

Ponga el ratón en el punto deseado para ver el nombre de la estación.

Haga clic para ver las observaciones y los pronósticos meteorológicos.

Para cambiar el mapa : haga clic en los botones verdes con una cruz de color negro para hacer un zoom, en el botón verde con un guión para alejar o en las flechas verdes para mapas adyacentes.


METAR-TAF: